Overseas Skopelos — V7SU9 — position and weather

sailwx.info

Track history (hours):
 
Tides and Currents Weather Stations Pressure Air Temp Water Temp Dewpoint Dewpoint Depression Visibility Wind Speed Wind Dir Waves Ship Positions

Overseas Skopelos

Last reported at 2016-Jan-21 03:03 UTC. Time now 2016-Feb-12 16:13 UTC.
Position N 29°21' W 094°46'.
Warning: this ship's position is 22 days out of date.

Length 183 m; draft 8.5 m.

Type: Tanker. MMSI: 538003726.

Date/timePositionNaut miles runAvg speedWind from/ knotsBaromVisibWave heightAir tempDewpointWater temp
2016-Jan-21 03:03N 29°21' W 094°46'8 9.9
2016-Jan-21 02:17N 29°27' W 094°51'810.7
2016-Jan-21 01:33N 29°34' W 094°55'10 9.8
2016-Jan-21 00:33N 29°42' W 095°01'5 5.1
2016-Jan-20 23:33N 29°45' W 095°06'0 0.0
2016-Jan-20 04:10N 29°45' W 095°06'0 0.0
2016-Jan-20 03:07N 29°45' W 095°06'0 0.0
2016-Jan-20 02:28N 29°45' W 095°06'0 0.0
2016-Jan-19 12:07N 29°45' W 095°06'0 0.0
2016-Jan-19 11:04N 29°45' W 095°06'0 0.0
2016-Jan-19 09:28N 29°45' W 095°06'0 0.0
2016-Jan-19 08:13N 29°45' W 095°06'0 0.0
2016-Jan-19 07:22N 29°45' W 095°06'0 0.0
2016-Jan-19 02:16N 29°45' W 095°06'0 0.0
2016-Jan-19 00:22N 29°45' W 095°06'0 0.0
2016-Jan-18 18:15N 29°45' W 095°06'0 0.3
2016-Jan-18 17:33N 29°45' W 095°06'5 5.5
2016-Jan-18 16:33N 29°42' W 095°01'1111.3
2016-Jan-18 15:33N 29°32' W 094°54'1211.7
2016-Jan-18 14:33N 29°22' W 094°48'1310.5
2016-Jan-18 13:17N 29°16' W 094°34'6 0.1
2016-Jan-16 12:31N 29°12' W 094°40'0 0.0
2016-Jan-16 11:25N 29°12' W 094°40'0 0.0
2016-Jan-15 19:07N 29°12' W 094°40'0 0.0
2016-Jan-15 17:31N 29°12' W 094°40'0 0.0
2016-Jan-15 16:31N 29°12' W 094°40'  
2016-Jan-13 11:31N 29°12' W 094°40'  
Track history (hours):
 
Tides and Currents Weather Stations Pressure Air Temp Water Temp Dewpoint Dewpoint Depression Visibility Wind Speed Wind Dir Waves Ship Positions

Overseas Skopelos

Last reported at 2016-Jan-21 03:03 UTC. Time now 2016-Feb-12 16:13 UTC.
Position N 29°21' W 094°46'.
Warning: this ship's position is 22 days out of date.

Length 183 m; draft 8.5 m.

Type: Tanker. MMSI: 538003726.

Date/timePositionNaut miles runAvg speedWind from/ knotsBaromVisibWave heightAir tempDewpointWater temp
2016-Jan-21 03:03N 29°21' W 094°46'8 9.9
2016-Jan-21 02:17N 29°27' W 094°51'810.7
2016-Jan-21 01:33N 29°34' W 094°55'10 9.8
2016-Jan-21 00:33N 29°42' W 095°01'5 5.1
2016-Jan-20 23:33N 29°45' W 095°06'0 0.0
2016-Jan-20 04:10N 29°45' W 095°06'0 0.0
2016-Jan-20 03:07N 29°45' W 095°06'0 0.0
2016-Jan-20 02:28N 29°45' W 095°06'0 0.0
2016-Jan-19 12:07N 29°45' W 095°06'0 0.0
2016-Jan-19 11:04N 29°45' W 095°06'0 0.0
2016-Jan-19 09:28N 29°45' W 095°06'0 0.0
2016-Jan-19 08:13N 29°45' W 095°06'0 0.0
2016-Jan-19 07:22N 29°45' W 095°06'0 0.0
2016-Jan-19 02:16N 29°45' W 095°06'0 0.0
2016-Jan-19 00:22N 29°45' W 095°06'0 0.0
2016-Jan-18 18:15N 29°45' W 095°06'0 0.3
2016-Jan-18 17:33N 29°45' W 095°06'5 5.5
2016-Jan-18 16:33N 29°42' W 095°01'1111.3
2016-Jan-18 15:33N 29°32' W 094°54'1211.7
2016-Jan-18 14:33N 29°22' W 094°48'1310.5
2016-Jan-18 13:17N 29°16' W 094°34'6 0.1
2016-Jan-16 12:31N 29°12' W 094°40'0 0.0
2016-Jan-16 11:25N 29°12' W 094°40'0 0.0
2016-Jan-15 19:07N 29°12' W 094°40'0 0.0
2016-Jan-15 17:31N 29°12' W 094°40'0 0.0
2016-Jan-15 16:31N 29°12' W 094°40'  
2016-Jan-13 11:31N 29°12' W 094°40'  

Dump ship's entire track history